Startpagina
METAR-TAF:

METAR-TAF

Vliegvelden :

Cerklje ob Krki, Slovenië

breedte: 45-53-59N, lengte: 15-30-55E, hoogte: 157 m

Actueel weer

Dit bericht is 45 minuten geleden gemaakt, om 00:00 UTC
Wind 6 kt uit het oosten, variërend tussen het noordoosten en het oostzuidoosten
Temperatuur 0°C
Vochtigheid 86%
Druk 1014 hPa
Zicht: 3200 m
lichte sneeuw

METAR: LJCE 220000Z AUTO 08006KT 040V110 3200 -SN OVC015/// M00/M02 Q1014

Tijdstip: 01:45 (00:45 UTC)

Verwachting

Dit bericht is 1 uur en het 45 minuten geleden gemaakt, om 23:00 UTC
Verwachting geldig van 22 om 00 UTC tot 22 om 09 UTC
Wind 5 kt uit het noordoosten
Zicht: 7000 m
Geheel bewolkt op 1800 ft
Tijdelijke
van 22 om 00 UTC tot 22 om 09 UTC
Wind 10 kt uit het noordoosten
Zicht: 3500 m
Geheel bewolkt op 1000 ft
lichte sneeuw
Kans 40% :
Tijdelijke
van 22 om 00 UTC tot 22 om 09 UTC
Zicht: 2000 m
op 600 ft
sneeuw, nevel

TAF: LJCE 212300Z 2200/2209 05005KT 7000 OVC018 TEMPO 2200/2209 05010KT 3500 -SN OVC010 PROB40 TEMPO 2200/2209 2000 SN BR VV006

Waarnemingen en weersverwachtingen van meer dan 4000 vliegvelden (METAR en TAF).

De beschikbare stations zijn de gele en rode punten op de kaart.

Ga met uw muis naar het station om de naam te zien.

Klik dan om waarnemingen en weersverwachtingen te zien.

kaart wijzigen: klik op de groene knoppen met een zwart kruis om in te zoomen, op de groene knop met een streepje om uit te zoomen of op de groene pijlen voor aangrenzende kaarten.


METAR-TAF: